Time;durP1;ratioP1;P1;durP2;ratioP2;P2;SDS_P1;SDS_P2;PMS_P1;PMS_P2;Temp;Humidity;BMP_temperature;BMP_pressure;BME280_temperature;BME280_humidity;BME280_pressure;Samples;Min_cycle;Max_cycle;Signal;HPM_P1;HPM_P2
2023/07/10 00:02:20;;;;;;;10.50;9.00;;;21.60;99.90;;;;;;5056851;28;20455;-80
2023/07/10 00:04:48;;;;;;;10.17;9.10;;;21.60;99.90;;;;;;5056034;28;20452;-81
2023/07/10 00:07:15;;;;;;;10.20;9.13;;;21.60;99.90;;;;;;5055020;28;20443;-79
2023/07/10 00:09:42;;;;;;;13.40;9.93;;;21.60;99.90;;;;;;5056013;28;20531;-80
2023/07/10 00:12:17;;;;;;;10.20;9.17;;;21.60;99.90;;;;;;5056086;28;20940;-80
2023/07/10 00:14:44;;;;;;;11.20;8.60;;;21.60;99.90;;;;;;5055592;28;20439;-80
2023/07/10 00:17:11;;;;;;;10.80;9.50;;;21.60;99.90;;;;;;5055203;28;20949;-80
2023/07/10 00:19:38;;;;;;;12.40;11.13;;;21.60;99.90;;;;;;5055831;28;20443;-81
2023/07/10 00:22:06;;;;;;;12.33;10.80;;;21.60;99.90;;;;;;5055221;28;20562;-80
2023/07/10 00:24:33;;;;;;;14.57;10.90;;;21.60;99.90;;;;;;5054420;28;20448;-80
2023/07/10 00:27:00;;;;;;;11.63;10.43;;;21.60;99.90;;;;;;5054458;28;20456;-80
2023/07/10 00:29:31;;;;;;;14.87;11.30;;;21.60;99.90;;;;;;5055946;28;20476;-81
2023/07/10 00:31:58;;;;;;;12.37;11.07;;;21.60;99.90;;;;;;5055681;28;20439;-80
2023/07/10 00:34:25;;;;;;;13.33;12.03;;;21.60;99.90;;;;;;5055875;28;20463;-81
2023/07/10 00:36:53;;;;;;;12.50;11.30;;;21.60;99.90;;;;;;5055150;28;20448;-81
2023/07/10 00:39:24;;;;;;;13.17;11.97;;;21.50;99.90;;;;;;5055669;28;20484;-80
2023/07/10 00:41:54;;;;;;;13.80;11.63;;;21.50;99.90;;;;;;5055226;28;20995;-80
2023/07/10 00:44:23;;;;;;;14.23;12.87;;;21.50;99.90;;;;;;5055242;28;20949;-81
2023/07/10 00:46:55;;;;;;;12.87;11.67;;;21.50;99.90;;;;;;5054837;28;20456;-82
2023/07/10 00:49:30;;;;;;;15.90;14.40;;;21.50;99.90;;;;;;5055639;28;20483;-81
2023/07/10 00:52:01;;;;;;;15.57;14.17;;;21.50;99.90;;;;;;5055414;28;20732;-79
2023/07/10 00:54:35;;;;;;;15.00;13.63;;;21.50;99.90;;;;;;5055348;28;20448;-80
2023/07/10 00:57:05;;;;;;;15.80;14.30;;;21.50;99.90;;;;;;5055372;28;20447;-80
2023/07/10 00:59:37;;;;;;;16.37;14.40;;;21.50;99.90;;;;;;5055444;28;20458;-80
2023/07/10 01:02:22;;;;;;;19.43;13.60;;;21.60;99.90;;;;;;5055329;28;20484;-80
2023/07/10 01:04:55;;;;;;;13.23;11.83;;;21.50;99.90;;;;;;5054377;28;20488;-81
2023/07/10 01:07:25;;;;;;;12.90;11.40;;;21.50;99.90;;;;;;5055127;28;20470;-83
2023/07/10 01:09:57;;;;;;;15.20;12.60;;;21.60;99.90;;;;;;5057185;28;20423;-80
2023/07/10 01:12:27;;;;;;;14.17;12.87;;;21.60;99.90;;;;;;5056132;28;20458;-81
2023/07/10 01:14:54;;;;;;;13.07;11.80;;;21.60;99.90;;;;;;5056026;28;20452;-82
2023/07/10 01:17:21;;;;;;;14.60;12.10;;;21.60;99.90;;;;;;5054452;28;20466;-81
2023/07/10 01:19:49;;;;;;;13.47;12.17;;;21.60;99.90;;;;;;5056148;28;20454;-81
2023/07/10 01:22:17;;;;;;;14.87;11.27;;;21.60;99.90;;;;;;5055078;28;20484;-80
2023/07/10 01:24:44;;;;;;;12.53;11.33;;;21.60;99.90;;;;;;5053816;28;20448;-80
2023/07/10 01:27:13;;;;;;;13.47;11.37;;;21.60;99.90;;;;;;5054097;28;20454;-81
2023/07/10 01:29:44;;;;;;;10.97;9.97;;;21.60;99.90;;;;;;5056008;28;20443;-80
2023/07/10 01:32:15;;;;;;;13.60;11.90;;;21.60;99.90;;;;;;5054506;28;20452;-81
2023/07/10 01:34:44;;;;;;;11.03;10.07;;;21.60;99.90;;;;;;5056387;28;20530;-81
2023/07/10 01:37:12;;;;;;;12.20;10.43;;;21.50;99.90;;;;;;5057270;28;20819;-81
2023/07/10 01:39:43;;;;;;;11.43;10.20;;;21.50;99.90;;;;;;5059604;28;20890;-80
2023/07/10 01:42:10;;;;;;;13.27;9.53;;;21.50;99.90;;;;;;5058925;28;20478;-81
2023/07/10 01:44:39;;;;;;;11.37;10.37;;;21.50;99.90;;;;;;5058987;28;20458;-81
2023/07/10 01:47:08;;;;;;;12.43;11.07;;;21.50;99.90;;;;;;5058273;28;20936;-81
2023/07/10 01:49:38;;;;;;;11.07;9.97;;;21.40;99.90;;;;;;5058672;28;20456;-81
2023/07/10 01:52:08;;;;;;;12.20;11.00;;;21.40;99.90;;;;;;5058544;28;20578;-80
2023/07/10 01:54:36;;;;;;;11.73;10.50;;;21.40;99.90;;;;;;5059940;28;21091;-81
2023/07/10 01:57:04;;;;;;;10.60;9.50;;;21.40;99.90;;;;;;5058165;28;20453;-81
2023/07/10 01:59:31;;;;;;;11.70;10.10;;;21.40;99.90;;;;;;5059220;28;20466;-81
2023/07/10 02:02:00;;;;;;;14.53;11.40;;;21.40;99.90;;;;;;5058083;28;20494;-81
2023/07/10 02:04:27;;;;;;;15.40;13.10;;;21.40;99.90;;;;;;5059547;28;20455;-81
2023/07/10 02:06:55;;;;;;;11.93;10.60;;;21.40;99.90;;;;;;5057626;28;20451;-81
2023/07/10 02:09:22;;;;;;;12.87;11.50;;;21.40;99.90;;;;;;5059482;28;20483;-80
2023/07/10 02:11:49;;;;;;;12.27;11.10;;;21.40;99.90;;;;;;5059774;28;20435;-80
2023/07/10 02:14:18;;;;;;;13.47;12.07;;;21.40;99.90;;;;;;5058521;28;20452;-81
2023/07/10 02:16:45;;;;;;;13.40;12.07;;;21.40;99.90;;;;;;5057880;28;20443;-80
2023/07/10 02:19:12;;;;;;;14.20;11.00;;;21.40;99.90;;;;;;5058882;28;20559;-80
2023/07/10 02:21:40;;;;;;;12.53;11.23;;;21.40;99.90;;;;;;5058737;28;21026;-80
2023/07/10 02:24:07;;;;;;;12.83;11.57;;;21.40;99.90;;;;;;5057024;28;20852;-81
2023/07/10 02:26:34;;;;;;;12.93;11.63;;;21.40;99.90;;;;;;5058100;28;20486;-80
2023/07/10 02:29:02;;;;;;;15.80;12.07;;;21.40;99.90;;;;;;5058617;28;20471;-80
2023/07/10 02:31:31;;;;;;;13.70;12.30;;;21.40;99.90;;;;;;5058529;28;20462;-79
2023/07/10 02:33:58;;;;;;;16.63;13.70;;;21.40;99.90;;;;;;5058196;28;20854;-81
2023/07/10 02:36:28;;;;;;;14.27;12.33;;;21.40;99.90;;;;;;5058495;28;20984;-80
2023/07/10 02:38:55;;;;;;;13.60;11.60;;;21.40;99.90;;;;;;5059148;28;20467;-80
2023/07/10 02:41:22;;;;;;;16.77;13.73;;;21.40;99.90;;;;;;5057966;28;20475;-80
2023/07/10 02:43:49;;;;;;;13.17;11.90;;;21.40;99.90;;;;;;5058332;28;20534;-80
2023/07/10 02:46:15;;;;;;;13.47;11.40;;;21.40;99.90;;;;;;5057223;28;20452;-79
2023/07/10 02:48:43;;;;;;;14.30;12.90;;;21.40;99.90;;;;;;5058390;28;20498;-80
2023/07/10 02:51:10;;;;;;;15.70;14.07;;;21.40;99.90;;;;;;5060441;28;20456;-80
2023/07/10 02:53:39;;;;;;;14.40;12.97;;;21.30;99.90;;;;;;5061261;28;20482;-80
2023/07/10 02:56:05;;;;;;;16.17;13.60;;;21.30;99.90;;;;;;5059886;28;20448;-80
2023/07/10 02:58:32;;;;;;;16.70;15.00;;;21.30;99.90;;;;;;5060977;28;20497;-80
2023/07/10 03:01:01;;;;;;;24.80;14.73;;;21.30;99.90;;;;;;5061603;28;20537;-80
2023/07/10 03:03:28;;;;;;;16.67;15.07;;;21.30;99.90;;;;;;5062592;28;20547;-80
2023/07/10 03:05:58;;;;;;;18.40;16.40;;;21.30;99.90;;;;;;5058381;28;20462;-79
2023/07/10 03:08:25;;;;;;;15.83;14.33;;;21.30;99.90;;;;;;5057904;28;20488;-79
2023/07/10 03:11:00;;;;;;;17.10;15.40;;;21.30;99.90;;;;;;5058543;28;20466;-80
2023/07/10 03:13:26;;;;;;;17.57;15.77;;;21.20;99.90;;;;;;5058392;28;20454;-80
2023/07/10 03:16:00;;;;;;;16.80;14.87;;;21.20;99.90;;;;;;5057135;28;20464;-79
2023/07/10 03:18:27;;;;;;;19.23;17.13;;;21.20;99.90;;;;;;5058746;28;20484;-80
2023/07/10 03:20:54;;;;;;;15.93;14.33;;;21.20;99.90;;;;;;5058747;28;20455;-80
2023/07/10 03:23:22;;;;;;;18.27;16.30;;;21.20;99.90;;;;;;5057477;28;20452;-80
2023/07/10 03:25:49;;;;;;;20.70;18.50;;;21.20;99.90;;;;;;5056429;28;20447;-79
2023/07/10 03:28:17;;;;;;;27.80;20.07;;;21.10;99.90;;;;;;5057814;28;20452;-80
2023/07/10 03:30:43;;;;;;;24.50;19.90;;;21.20;99.90;;;;;;5057687;28;21019;-80
2023/07/10 03:33:12;;;;;;;21.10;18.90;;;21.20;99.90;;;;;;5058297;28;20444;-80
2023/07/10 03:35:39;;;;;;;21.20;19.07;;;21.20;99.90;;;;;;5058843;28;20438;-80
2023/07/10 03:38:06;;;;;;;25.07;19.80;;;21.20;99.90;;;;;;5058546;28;20499;-80
2023/07/10 03:40:34;;;;;;;21.23;18.30;;;21.10;99.90;;;;;;5058927;28;20521;-80
2023/07/10 03:43:01;;;;;;;22.73;18.90;;;21.10;99.90;;;;;;5057442;28;20483;-79
2023/07/10 03:45:30;;;;;;;20.57;18.40;;;21.10;99.90;;;;;;5057104;28;20452;-78
2023/07/10 03:47:57;;;;;;;19.70;17.60;;;21.10;99.90;;;;;;5058296;28;20472;-80
2023/07/10 03:50:24;;;;;;;20.17;18.07;;;21.20;99.90;;;;;;5058155;28;20462;-80
2023/07/10 03:52:50;;;;;;;19.30;17.23;;;21.10;99.90;;;;;;5058438;28;20535;-79
2023/07/10 03:55:17;;;;;;;20.47;16.67;;;21.10;99.90;;;;;;5055922;28;20460;-79
2023/07/10 03:57:45;;;;;;;22.00;17.80;;;21.10;99.90;;;;;;5056906;28;20472;-80
2023/07/10 04:00:13;;;;;;;17.77;15.97;;;21.20;99.90;;;;;;5058624;28;20823;-80
2023/07/10 04:02:40;;;;;;;19.90;17.03;;;21.10;99.90;;;;;;5059698;28;20480;-79
2023/07/10 04:05:07;;;;;;;17.57;15.60;;;21.10;99.90;;;;;;5057928;28;20813;-78
2023/07/10 04:07:34;;;;;;;17.43;14.73;;;21.20;99.90;;;;;;5059244;28;20487;-81
2023/07/10 04:10:00;;;;;;;21.97;15.17;;;21.20;99.90;;;;;;5060892;28;20444;-80
2023/07/10 04:12:27;;;;;;;16.40;14.70;;;21.20;99.90;;;;;;5062699;28;20444;-80
2023/07/10 04:14:55;;;;;;;19.57;15.90;;;21.10;99.90;;;;;;5064041;28;20466;-80
2023/07/10 04:17:22;;;;;;;18.13;16.37;;;21.20;99.90;;;;;;5063589;28;20539;-80
2023/07/10 04:19:49;;;;;;;17.70;15.50;;;21.20;99.90;;;;;;5060077;28;20458;-79
2023/07/10 04:22:16;;;;;;;18.37;15.70;;;21.10;99.90;;;;;;5061965;28;20479;-79
2023/07/10 04:24:43;;;;;;;16.63;14.93;;;21.10;99.90;;;;;;5063716;28;20523;-80
2023/07/10 04:27:10;;;;;;;17.63;16.03;;;21.00;99.90;;;;;;5063408;28;20452;-80
2023/07/10 04:29:37;;;;;;;17.50;15.17;;;21.10;99.90;;;;;;5062884;28;20544;-79
2023/07/10 04:32:06;;;;;;;17.50;15.70;;;21.10;99.90;;;;;;5063461;28;20515;-80
2023/07/10 04:34:36;;;;;;;21.53;15.43;;;20.60;99.90;;;;;;5067354;28;21019;-81
2023/07/10 04:37:03;;;;;;;16.67;14.03;;;;;;;;;;5068861;28;20479;-81
2023/07/10 04:39:30;;;;;;;22.30;18.00;;;;;;;;;;5068870;28;20448;-81
2023/07/10 04:41:57;;;;;;;17.67;15.23;;;;;;;;;;5069094;28;21027;-81
2023/07/10 04:44:24;;;;;;;18.20;14.20;;;;;;;;;;5068470;28;20456;-81
2023/07/10 04:46:51;;;;;;;17.03;14.43;;;;;;;;;;5068476;28;20474;-81
2023/07/10 04:49:20;;;;;;;15.87;14.10;;;21.00;99.90;;;;;;5068811;28;20558;-81
2023/07/10 04:51:47;;;;;;;18.63;16.40;;;;;;;;;;5067530;28;20444;-81
2023/07/10 04:54:14;;;;;;;15.07;13.47;;;;;;;;;;5067923;28;20459;-81
2023/07/10 04:56:41;;;;;;;15.97;14.33;;;;;;;;;;5068001;28;20824;-81
2023/07/10 04:59:08;;;;;;;18.40;14.03;;;;;;;;;;5068308;28;21043;-81
2023/07/10 05:01:37;;;;;;;18.03;14.07;;;;;;;;;;5067929;28;20451;-81
2023/07/10 05:04:04;;;;;;;14.30;11.77;;;;;;;;;;5068889;28;20482;-81
2023/07/10 05:06:32;;;;;;;14.63;13.13;;;21.00;99.90;;;;;;5067970;28;20450;-80
2023/07/10 05:08:59;;;;;;;21.30;16.63;;;20.90;99.90;;;;;;5029107;28;20479;-81
2023/07/10 05:11:28;;;;;;;14.77;11.57;;;20.50;99.90;;;;;;5048678;28;20464;-82
2023/07/10 05:13:56;;;;;;;14.37;12.67;;;20.80;99.90;;;;;;5053105;28;20452;-81
2023/07/10 05:16:24;;;;;;;16.70;13.43;;;20.90;99.90;;;;;;5058461;28;21018;-82
2023/07/10 05:18:51;;;;;;;15.60;13.57;;;20.90;99.90;;;;;;5056061;28;20482;-80
2023/07/10 05:21:18;;;;;;;13.80;12.40;;;20.90;99.90;;;;;;5049396;28;20491;-81
2023/07/10 05:23:46;;;;;;;13.40;11.73;;;21.20;99.90;;;;;;5049920;28;20488;-82
2023/07/10 05:26:15;;;;;;;14.60;13.10;;;20.90;99.90;;;;;;5042198;28;20455;-82
2023/07/10 05:28:42;;;;;;;17.33;15.07;;;20.80;99.90;;;;;;5060362;28;20558;-81
2023/07/10 05:31:12;;;;;;;15.27;13.67;;;20.90;99.90;;;;;;5060272;28;21189;-82
2023/07/10 05:33:40;;;;;;;15.50;13.77;;;21.30;99.90;;;;;;5061387;28;20936;-81
2023/07/10 05:36:09;;;;;;;19.13;14.80;;;20.90;99.90;;;;;;5054514;28;20468;-82
2023/07/10 05:38:36;;;;;;;14.33;12.37;;;20.80;99.90;;;;;;5050689;28;20537;-82
2023/07/10 05:41:05;;;;;;;18.63;13.10;;;22.10;99.90;;;;;;5059326;28;20448;-79
2023/07/10 05:43:33;;;;;;;14.43;12.93;;;21.00;99.90;;;;;;5041626;28;20484;-80
2023/07/10 05:46:01;;;;;;;16.90;10.13;;;21.00;99.90;;;;;;5052634;28;20542;-82
2023/07/10 05:48:29;;;;;;;14.13;11.60;;;;;;;;;;5062229;28;20543;-82
2023/07/10 05:50:56;;;;;;;13.93;11.90;;;;;;;;;;5061595;28;20481;-84
2023/07/10 05:53:24;;;;;;;15.10;11.37;;;;;;;;;;5064975;28;20511;-84
2023/07/10 05:55:52;;;;;;;12.70;11.40;;;21.00;99.90;;;;;;5062799;28;20451;-84
2023/07/10 05:58:22;;;;;;;12.07;10.80;;;21.20;99.90;;;;;;5063102;28;20922;-85
2023/07/10 06:00:51;;;;;;;12.93;10.80;;;21.00;99.90;;;;;;5059277;28;20532;-85
2023/07/10 06:03:18;;;;;;;13.57;11.73;;;;;;;;;;5063398;28;20552;-84
2023/07/10 06:05:55;;;;;;;15.20;12.43;;;21.20;99.90;;;;;;5052998;28;20543;-82
2023/07/10 06:08:22;;;;;;;14.63;11.47;;;;;;;;;;5058249;28;20483;-84
2023/07/10 06:10:50;;;;;;;13.60;11.63;;;;;;;;;;5059095;28;20446;-84
2023/07/10 06:13:17;;;;;;;13.33;11.47;;;;;;;;;;5056380;28;20456;-84
2023/07/10 06:15:47;;;;;;;13.23;10.57;;;20.90;99.90;;;;;;5053573;28;20473;-84
2023/07/10 06:18:15;;;;;;;12.30;10.10;;;20.70;99.90;;;;;;5058412;28;20548;-85
2023/07/10 06:20:42;;;;;;;13.07;10.83;;;21.40;99.90;;;;;;5059763;28;20570;-84
2023/07/10 06:23:09;;;;;;;14.57;11.47;;;;;;;;;;5057867;28;20479;-85
2023/07/10 06:25:36;;;;;;;12.30;10.87;;;;;;;;;;5058322;28;20451;-82
2023/07/10 06:28:03;;;;;;;12.23;11.00;;;;;;;;;;5071366;28;20466;-84
2023/07/10 06:30:30;;;;;;;8.60;7.80;;;21.60;99.90;;;;;;5069612;28;20462;-84
2023/07/10 06:32:58;;;;;;;10.40;8.27;;;21.20;99.90;;;;;;5065569;28;20454;-84
2023/07/10 06:35:25;;;;;;;9.87;6.83;;;;;;;;;;5059247;28;20883;-83
2023/07/10 06:37:52;;;;;;;7.30;6.20;;;;;;;;;;5062313;28;20470;-81
2023/07/10 06:40:20;;;;;;;7.50;5.30;;;;;;;;;;5061350;28;21043;-82
2023/07/10 06:42:47;;;;;;;7.40;5.17;;;;;;;;;;5060966;28;20484;-83
2023/07/10 06:45:14;;;;;;;7.40;6.70;;;;;;;;;;5059007;28;20547;-83
2023/07/10 06:47:43;;;;;;;5.40;4.63;;;21.20;99.90;;;;;;5051339;28;21003;-81
2023/07/10 06:50:13;;;;;;;7.40;4.63;;;21.40;99.90;;;;;;5046487;28;20464;-82
2023/07/10 06:52:42;;;;;;;5.83;5.03;;;21.10;99.90;;;;;;5057895;28;20570;-82
2023/07/10 06:55:14;;;;;;;5.03;4.50;;;21.10;99.90;;;;;;5059719;28;20524;-82
2023/07/10 06:57:41;;;;;;;5.23;3.77;;;;;;;;;;5056041;28;20479;-80
2023/07/10 07:00:11;;;;;;;6.87;4.43;;;20.80;99.90;;;;;;5060156;28;20456;-82
2023/07/10 07:02:38;;;;;;;6.40;4.40;;;;;;;;;;5060229;28;20807;-84
2023/07/10 07:05:07;;;;;;;4.50;4.07;;;20.80;99.90;;;;;;5060074;28;20487;-83
2023/07/10 07:07:36;;;;;;;8.97;3.93;;;20.70;99.90;;;;;;5054013;28;20523;-83
2023/07/10 07:10:04;;;;;;;4.90;3.63;;;;;;;;;;5062294;28;20504;-87
2023/07/10 07:12:31;;;;;;;5.53;3.80;;;;;;;;;;5063342;28;20527;-86
2023/07/10 07:14:58;;;;;;;4.30;3.70;;;;;;;;;;5064354;28;20456;-84
2023/07/10 07:17:25;;;;;;;6.47;4.30;;;;;;;;;;5061129;28;20514;-87
2023/07/10 07:19:52;;;;;;;7.30;5.33;;;21.40;99.90;;;;;;5063085;28;20444;-84
2023/07/10 07:22:19;;;;;;;6.40;4.93;;;;;;;;;;5062441;28;20535;-85
2023/07/10 07:24:47;;;;;;;6.90;6.20;;;21.40;99.90;;;;;;5063955;28;20517;-85
2023/07/10 07:27:15;;;;;;;8.03;5.10;;;;;;;;;;5063504;28;20448;-83
2023/07/10 07:29:42;;;;;;;7.10;5.87;;;;;;;;;;5058833;28;20483;-83
2023/07/10 07:32:10;;;;;;;11.37;7.10;;;21.70;99.90;;;;;;5060011;28;20475;-83
2023/07/10 07:34:38;;;;;;;7.00;6.40;;;;;;;;;;5049100;28;20916;-84
2023/07/10 07:37:06;;;;;;;6.97;6.27;;;21.70;99.90;;;;;;5063505;28;20540;-84
2023/07/10 07:39:33;;;;;;;9.00;6.70;;;;;;;;;;5063666;28;20547;-83
2023/07/10 07:42:01;;;;;;;8.47;6.07;;;22.00;99.90;;;;;;5062937;28;20519;-85
2023/07/10 07:44:29;;;;;;;9.27;7.90;;;;;;;;;;5064313;28;20499;-84
2023/07/10 07:46:56;;;;;;;8.30;7.00;;;;;;;;;;5061000;28;20523;-86
2023/07/10 07:49:24;;;;;;;10.07;8.17;;;;;;;;;;5055096;28;20496;-87
2023/07/10 07:51:51;;;;;;;8.27;6.37;;;22.10;99.90;;;;;;5059332;28;20464;-85
2023/07/10 07:54:18;;;;;;;6.83;5.60;;;;;;;;;;5069987;28;20453;-84
2023/07/10 07:56:45;;;;;;;7.87;5.10;;;;;;;;;;5058557;28;20470;-86
2023/07/10 07:59:13;;;;;;;8.13;4.90;;;22.50;99.90;;;;;;5063144;28;21003;-84
2023/07/10 08:01:41;;;;;;;4.87;4.37;;;;;;;;;;5056777;28;20487;-81
2023/07/10 08:04:08;;;;;;;5.00;4.33;;;;;;;;;;5060629;28;20472;-84
2023/07/10 08:06:35;;;;;;;6.93;4.23;;;;;;;;;;5058880;28;20559;-84
2023/07/10 08:09:02;;;;;;;7.53;5.13;;;;;;;;;;5056650;28;20548;-86
2023/07/10 08:11:30;;;;;;;5.83;4.17;;;;;;;;;;5046718;28;20462;-85
2023/07/10 08:13:57;;;;;;;8.50;4.57;;;;;;;;;;5064135;28;20490;-87
2023/07/10 08:16:27;;;;;;;5.33;4.20;;;22.30;99.90;;;;;;5063328;28;20466;-84
2023/07/10 08:18:54;;;;;;;8.03;4.40;;;22.50;99.90;;;;;;5061758;28;20459;-86
2023/07/10 08:21:21;;;;;;;5.53;3.70;;;;;;;;;;5061324;28;20499;-84
2023/07/10 08:23:48;;;;;;;6.60;3.97;;;;;;;;;;5064676;28;20503;-86
2023/07/10 08:26:15;;;;;;;6.20;3.57;;;;;;;;;;5059323;28;20460;-84
2023/07/10 08:28:42;;;;;;;3.47;3.17;;;;;;;;;;5074501;28;20532;-85
2023/07/10 08:31:10;;;;;;;6.90;3.60;;;;;;;;;;5078635;28;20523;-85
2023/07/10 08:33:38;;;;;;;7.07;4.37;;;22.40;1.00;;;;;;5062070;28;20486;-85
2023/07/10 08:36:07;;;;;;;7.90;4.07;;;22.40;8.80;;;;;;5061002;28;20455;-85
2023/07/10 08:38:36;;;;;;;5.20;3.60;;;22.50;11.50;;;;;;5073135;28;20509;-85
2023/07/10 08:41:16;;;;;;;9.13;4.83;;;22.60;92.50;;;;;;5069751;28;20528;-83
2023/07/10 08:43:44;;;;;;;8.43;3.70;;;22.80;1.00;;;;;;5066291;28;20547;-85
2023/07/10 08:46:15;;;;;;;7.30;4.13;;;23.00;1.00;;;;;;5063376;28;20876;-85
2023/07/10 08:48:50;;;;;;;5.00;3.60;;;23.00;1.00;;;;;;5060429;28;20507;-84
2023/07/10 08:51:32;;;;;;;7.20;3.67;;;23.20;25.90;;;;;;5059119;28;20526;-83
2023/07/10 08:54:04;;;;;;;11.13;4.80;;;23.30;41.20;;;;;;5063635;28;20542;-85
2023/07/10 08:56:35;;;;;;;4.70;2.93;;;23.30;1.00;;;;;;5059931;28;20462;-84
2023/07/10 08:59:09;;;;;;;6.37;3.30;;;23.50;1.00;;;;;;5060537;28;20483;-85
2023/07/10 09:01:41;;;;;;;7.03;3.27;;;23.60;1.00;;;;;;5057808;28;20458;-86
2023/07/10 09:04:13;;;;;;;6.00;3.43;;;23.70;1.00;;;;;;5053514;28;20467;-87
2023/07/10 09:06:42;;;;;;;5.80;3.00;;;23.90;1.00;;;;;;5054052;28;20479;-85
2023/07/10 09:09:24;;;;;;;6.00;3.47;;;24.10;1.00;;;;;;5061749;28;20485;-82
2023/07/10 09:11:53;;;;;;;4.30;2.57;;;24.20;1.00;;;;;;5052444;28;21127;-84
2023/07/10 09:14:31;;;;;;;7.50;2.93;;;24.40;1.00;;;;;;5059092;28;20432;-84
2023/07/10 09:16:59;;;;;;;4.20;2.60;;;24.50;1.00;;;;;;5055336;28;20444;-84
2023/07/10 09:19:29;;;;;;;3.80;2.40;;;24.60;1.00;;;;;;5053520;28;20478;-84
2023/07/10 09:21:56;;;;;;;5.40;2.77;;;24.80;48.10;;;;;;5054906;28;20542;-84
2023/07/10 09:24:24;;;;;;;5.77;2.87;;;24.70;99.90;;;;;;5057925;28;20483;-84
2023/07/10 09:26:51;;;;;;;5.43;2.80;;;24.80;99.90;;;;;;5053306;28;20459;-84
2023/07/10 09:29:30;;;;;;;7.40;2.87;;;24.90;99.90;;;;;;5060145;28;20554;-84
2023/07/10 09:32:08;;;;;;;6.83;2.30;;;25.00;99.90;;;;;;5062435;28;20445;-85
2023/07/10 09:34:36;;;;;;;4.80;2.47;;;25.20;99.90;;;;;;5061666;28;20539;-84
2023/07/10 09:37:09;;;;;;;4.80;2.30;;;25.10;1.00;;;;;;5056042;28;20443;-83
2023/07/10 09:39:36;;;;;;;7.10;3.20;;;25.20;99.90;;;;;;5058503;28;20471;-82
2023/07/10 09:42:04;;;;;;;4.63;2.90;;;25.30;99.90;;;;;;5050469;28;20462;-83
2023/07/10 09:44:35;;;;;;;4.47;2.80;;;25.40;99.90;;;;;;5056166;28;20938;-81
2023/07/10 09:47:08;;;;;;;5.47;2.67;;;25.30;35.40;;;;;;5064059;28;21022;-82
2023/07/10 09:49:42;;;;;;;5.43;2.50;;;25.60;1.00;;;;;;5060097;28;20467;-84
2023/07/10 09:52:23;;;;;;;6.87;2.43;;;26.10;7.50;;;;;;5055124;28;20448;-83
2023/07/10 09:54:59;;;;;;;7.20;2.90;;;26.50;1.00;;;;;;5056533;28;20478;-84
2023/07/10 09:57:26;;;;;;;6.10;2.73;;;26.80;1.00;;;;;;5054236;28;20833;-82
2023/07/10 09:59:55;;;;;;;6.70;2.27;;;27.00;1.00;;;;;;5063444;28;20458;-84
2023/07/10 10:02:24;;;;;;;3.67;2.00;;;27.10;1.00;;;;;;5055548;28;20496;-83
2023/07/10 10:05:01;;;;;;;4.93;2.30;;;27.30;99.90;;;;;;5057575;28;20495;-82
2023/07/10 10:07:36;;;;;;;4.90;1.97;;;27.30;1.00;;;;;;5057851;28;20554;-79
2023/07/10 10:10:28;;;;;;;5.27;2.27;;;27.40;47.90;;;;;;5058570;28;20458;-82
2023/07/10 10:13:05;;;;;;;5.83;1.83;;;27.30;1.00;;;;;;5042715;28;20455;-83
2023/07/10 10:15:41;;;;;;;3.33;2.03;;;27.30;99.90;;;;;;5058031;28;20446;-80
2023/07/10 10:18:20;;;;;;;3.60;2.40;;;27.30;99.90;;;;;;5062595;28;21207;-82
2023/07/10 10:20:49;;;;;;;4.40;1.50;;;27.20;1.00;;;;;;5054380;28;20451;-81
2023/07/10 10:23:30;;;;;;;3.73;1.70;;;27.00;99.90;;;;;;5059704;28;20474;-80
2023/07/10 10:26:07;;;;;;;5.03;2.03;;;26.80;1.00;;;;;;5059704;28;20452;-82
2023/07/10 10:28:40;;;;;;;9.10;2.20;;;26.70;1.00;;;;;;5055352;28;20474;-81
2023/07/10 10:31:09;;;;;;;6.40;2.40;;;26.90;55.80;;;;;;5048135;28;20547;-82
2023/07/10 10:33:42;;;;;;;3.60;1.83;;;27.10;84.00;;;;;;5058211;28;20448;-81
2023/07/10 10:36:22;;;;;;;3.80;2.10;;;27.40;1.00;;;;;;5057265;28;20830;-85
2023/07/10 10:38:56;;;;;;;3.80;2.10;;;27.70;1.00;;;;;;5059209;28;20937;-78
2023/07/10 10:41:39;;;;;;;3.70;1.93;;;28.10;99.90;;;;;;5058841;28;20452;-79
2023/07/10 10:44:13;;;;;;;6.20;2.00;;;28.40;1.00;;;;;;5058235;28;20585;-78
2023/07/10 10:47:00;;;;;;;3.97;1.83;;;28.60;1.00;;;;;;5055746;28;20524;-79
2023/07/10 10:49:42;;;;;;;5.70;2.20;;;28.80;1.00;;;;;;5057279;28;20471;-78
2023/07/10 10:52:21;;;;;;;5.00;1.80;;;29.00;1.00;;;;;;5057113;28;20436;-79
2023/07/10 10:54:59;;;;;;;5.70;1.80;;;29.00;1.00;;;;;;5057192;28;20450;-80
2023/07/10 10:57:38;;;;;;;3.37;2.20;;;29.00;1.00;;;;;;5056560;28;20537;-83
2023/07/10 11:00:20;;;;;;;5.43;1.90;;;29.10;1.00;;;;;;5057464;28;20451;-81
2023/07/10 11:03:08;;;;;;;6.90;1.80;;;29.20;1.00;;;;;;5059745;28;20518;-83
2023/07/10 11:05:40;;;;;;;3.47;1.70;;;29.40;1.00;;;;;;5043555;28;20485;-80
2023/07/10 11:08:15;;;;;;;4.60;1.40;;;29.10;1.00;;;;;;5077776;22;20535;-82
2023/07/10 11:10:43;;;;;;;3.10;1.23;;;29.40;99.90;;;;;;5035161;28;20471;-85
2023/07/10 11:13:24;;;;;;;3.73;1.73;;;29.50;99.90;;;;;;5035361;28;20837;-84
2023/07/10 11:15:52;;;;;;;3.40;1.80;;;29.70;1.00;;;;;;5035668;28;20897;-83
2023/07/10 11:18:19;;;;;;;3.80;1.90;;;30.00;1.00;;;;;;5037218;28;20471;-83
2023/07/10 11:20:46;;;;;;;4.63;1.60;;;30.30;1.00;;;;;;5048079;28;20465;-86
2023/07/10 11:23:34;;;;;;;4.80;1.60;;;30.20;1.00;;;;;;5034500;28;20459;-82
2023/07/10 11:26:04;;;;;;;4.17;1.87;;;30.40;99.90;;;;;;5028917;28;20547;-81
2023/07/10 11:28:32;;;;;;;3.57;1.70;;;30.50;99.90;;;;;;5032827;28;20479;-82
2023/07/10 11:31:35;;;;;;;3.63;1.17;;;30.40;1.00;;;;;;5033959;28;20465;-81
2023/07/10 11:34:37;;;;;;;3.70;1.37;;;30.60;1.00;;;;;;5034873;28;20833;-82
2023/07/10 11:37:04;;;;;;;3.50;1.37;;;30.60;99.90;;;;;;5033236;28;20457;-84
2023/07/10 11:39:34;;;;;;;6.00;2.00;;;30.60;99.90;;;;;;5035570;28;20480;-83
2023/07/10 11:42:16;;;;;;;4.10;2.00;;;30.80;99.90;;;;;;5034735;28;20445;-81
2023/07/10 11:44:46;;;;;;;3.73;2.00;;;31.10;99.90;;;;;;5034491;28;20531;-82
2023/07/10 11:47:28;;;;;;;2.87;1.40;;;31.10;99.90;;;;;;5026712;28;20472;-82
2023/07/10 11:50:17;;;;;;;3.90;1.30;;;31.10;99.90;;;;;;5016503;28;20505;-81
2023/07/10 11:52:44;;;;;;;4.10;1.40;;;31.30;99.90;;;;;;5031717;28;20815;-82
2023/07/10 11:55:27;;;;;;;3.63;1.33;;;31.30;99.90;;;;;;5033577;28;20821;-81
2023/07/10 11:58:22;;;;;;;3.43;1.33;;;32.10;1.00;;;;;;5041762;28;20460;-83
2023/07/10 12:00:50;;;;;;;6.50;2.37;;;31.80;99.90;;;;;;5032002;28;20540;-82
2023/07/10 12:03:17;;;;;;;3.13;1.60;;;31.70;99.90;;;;;;5033960;28;20460;-81
2023/07/10 12:05:44;;;;;;;3.40;1.87;;;31.70;99.90;;;;;;5030558;28;20507;-81
2023/07/10 12:08:14;;;;;;;5.87;1.90;;;31.70;99.90;;;;;;5023573;28;20513;-81
2023/07/10 12:10:45;;;;;;;5.73;2.17;;;31.70;99.90;;;;;;5032185;28;21261;-82
2023/07/10 12:13:27;;;;;;;4.00;1.60;;;31.10;99.90;;;;;;5044265;28;20924;-82
2023/07/10 12:15:55;;;;;;;5.20;1.53;;;30.50;99.90;;;;;;5025566;28;20956;-82
2023/07/10 12:18:31;;;;;;;4.43;1.70;;;30.50;99.90;;;;;;5047579;28;21283;-81
2023/07/10 12:21:01;;;;;;;5.10;1.73;;;30.90;99.90;;;;;;5049912;28;20458;-83
2023/07/10 12:23:28;;;;;;;3.00;1.47;;;31.20;99.90;;;;;;5051415;28;20444;-82
2023/07/10 12:26:02;;;;;;;2.93;1.50;;;31.30;99.90;;;;;;5044008;28;20492;-82
2023/07/10 12:28:30;;;;;;;2.53;1.30;;;31.30;99.90;;;;;;5033721;28;20483;-81
2023/07/10 12:30:59;;;;;;;4.13;1.43;;;31.40;99.90;;;;;;5036418;28;20910;-81
2023/07/10 12:33:36;;;;;;;4.60;2.17;;;31.20;99.90;;;;;;5032601;28;20452;-82
2023/07/10 12:36:24;;;;;;;2.73;1.40;;;31.00;99.90;;;;;;5032042;28;20453;-81
2023/07/10 12:38:52;;;;;;;4.70;1.60;;;31.00;99.90;;;;;;5032922;28;20480;-81
2023/07/10 12:41:22;;;;;;;3.13;1.50;;;30.80;99.90;;;;;;5035308;28;20463;-78
2023/07/10 12:43:53;;;;;;;3.30;1.43;;;30.30;99.90;;;;;;5025926;28;20448;-82
2023/07/10 12:46:24;;;;;;;3.20;1.60;;;29.50;99.90;;;;;;5030393;28;20452;-82
2023/07/10 12:48:56;;;;;;;4.83;1.80;;;29.20;99.90;;;;;;5033036;28;20524;-81
2023/07/10 12:51:29;;;;;;;5.90;1.80;;;28.80;99.90;;;;;;5036170;28;20652;-80
2023/07/10 12:53:58;;;;;;;4.37;1.73;;;28.50;1.00;;;;;;5033014;28;20476;-81
2023/07/10 12:56:30;;;;;;;4.70;2.00;;;28.80;99.90;;;;;;5020477;28;20825;-81
2023/07/10 12:58:59;;;;;;;3.40;1.60;;;28.40;1.00;;;;;;5036515;28;20502;-81
2023/07/10 13:01:32;;;;;;;4.23;1.67;;;28.70;1.00;;;;;;5042024;28;21106;-82
2023/07/10 13:04:06;;;;;;;5.97;2.07;;;28.40;99.90;;;;;;5036322;28;20456;-81
2023/07/10 13:06:34;;;;;;;4.63;2.07;;;28.20;99.90;;;;;;5031493;28;20452;-80
2023/07/10 13:09:04;;;;;;;3.27;1.50;;;28.20;1.00;;;;;;5037687;28;20472;-82
2023/07/10 13:11:32;;;;;;;6.70;1.80;;;28.40;1.00;;;;;;5044944;28;20827;-84